sensor_id;sensor_type;location;lat;lon;timestamp;pressure;altitude;pressure_sealevel;temperature;humidity
11329;BME280;5719;42.714;23.732;2023-02-28T00:02:26;94874.06;;;8.32;100.00
11329;BME280;5719;42.714;23.732;2023-02-28T00:04:53;94874.81;;;8.34;100.00
11329;BME280;5719;42.714;23.732;2023-02-28T00:07:26;94864.59;;;8.32;100.00
11329;BME280;5719;42.714;23.732;2023-02-28T00:09:53;94865.44;;;8.33;100.00
11329;BME280;5719;42.714;23.732;2023-02-28T00:12:20;94871.06;;;8.24;100.00
11329;BME280;5719;42.714;23.732;2023-02-28T00:14:47;94875.25;;;8.11;100.00
11329;BME280;5719;42.714;23.732;2023-02-28T00:17:14;94862.31;;;8.12;100.00
11329;BME280;5719;42.714;23.732;2023-02-28T00:19:43;94866.03;;;8.07;100.00
11329;BME280;5719;42.714;23.732;2023-02-28T00:22:10;94871.91;;;8.09;100.00
11329;BME280;5719;42.714;23.732;2023-02-28T00:24:36;94869.34;;;8.09;100.00
11329;BME280;5719;42.714;23.732;2023-02-28T00:27:03;94868.25;;;8.13;100.00
11329;BME280;5719;42.714;23.732;2023-02-28T00:29:30;94855.47;;;8.11;100.00
11329;BME280;5719;42.714;23.732;2023-02-28T00:31:57;94852.81;;;8.13;100.00
11329;BME280;5719;42.714;23.732;2023-02-28T00:34:24;94859.25;;;8.20;100.00
11329;BME280;5719;42.714;23.732;2023-02-28T00:36:52;94859.84;;;8.25;100.00
11329;BME280;5719;42.714;23.732;2023-02-28T00:39:20;94862.31;;;8.12;100.00
11329;BME280;5719;42.714;23.732;2023-02-28T00:41:47;94872.00;;;8.07;100.00
11329;BME280;5719;42.714;23.732;2023-02-28T00:44:14;94864.94;;;8.11;100.00
11329;BME280;5719;42.714;23.732;2023-02-28T00:46:41;94885.19;;;8.17;100.00
11329;BME280;5719;42.714;23.732;2023-02-28T00:49:08;94870.22;;;8.23;100.00
11329;BME280;5719;42.714;23.732;2023-02-28T00:51:34;94862.34;;;8.26;100.00
11329;BME280;5719;42.714;23.732;2023-02-28T00:54:03;94851.72;;;8.32;100.00
11329;BME280;5719;42.714;23.732;2023-02-28T00:56:29;94843.38;;;8.27;100.00
11329;BME280;5719;42.714;23.732;2023-02-28T00:58:56;94837.56;;;8.24;100.00
11329;BME280;5719;42.714;23.732;2023-02-28T01:01:23;94840.16;;;8.24;100.00
11329;BME280;5719;42.714;23.732;2023-02-28T01:03:50;94836.50;;;8.28;100.00
11329;BME280;5719;42.714;23.732;2023-02-28T01:06:17;94840.06;;;8.25;100.00
11329;BME280;5719;42.714;23.732;2023-02-28T01:08:44;94840.81;;;8.27;100.00
11329;BME280;5719;42.714;23.732;2023-02-28T01:11:14;94835.72;;;8.12;100.00
11329;BME280;5719;42.714;23.732;2023-02-28T01:13:41;94839.50;;;8.20;100.00
11329;BME280;5719;42.714;23.732;2023-02-28T01:16:08;94830.94;;;8.20;100.00
11329;BME280;5719;42.714;23.732;2023-02-28T01:18:35;94828.94;;;8.25;100.00
11329;BME280;5719;42.714;23.732;2023-02-28T01:21:04;94828.88;;;8.26;100.00
11329;BME280;5719;42.714;23.732;2023-02-28T01:23:30;94825.47;;;8.26;100.00
11329;BME280;5719;42.714;23.732;2023-02-28T01:26:03;94813.50;;;8.25;100.00
11329;BME280;5719;42.714;23.732;2023-02-28T01:28:32;94821.03;;;8.28;100.00
11329;BME280;5719;42.714;23.732;2023-02-28T01:30:59;94828.53;;;8.17;100.00
11329;BME280;5719;42.714;23.732;2023-02-28T01:33:26;94833.22;;;8.10;100.00
11329;BME280;5719;42.714;23.732;2023-02-28T01:35:58;94825.84;;;8.04;100.00
11329;BME280;5719;42.714;23.732;2023-02-28T01:38:25;94824.25;;;8.02;100.00
11329;BME280;5719;42.714;23.732;2023-02-28T01:40:52;94835.06;;;8.08;100.00
11329;BME280;5719;42.714;23.732;2023-02-28T01:43:22;94837.53;;;8.10;100.00
11329;BME280;5719;42.714;23.732;2023-02-28T01:45:51;94842.69;;;8.10;100.00
11329;BME280;5719;42.714;23.732;2023-02-28T01:48:19;94838.53;;;8.07;100.00
11329;BME280;5719;42.714;23.732;2023-02-28T01:50:47;94829.91;;;8.08;100.00
11329;BME280;5719;42.714;23.732;2023-02-28T01:53:16;94832.50;;;8.08;100.00
11329;BME280;5719;42.714;23.732;2023-02-28T01:55:47;94844.53;;;8.08;100.00
11329;BME280;5719;42.714;23.732;2023-02-28T01:58:15;94842.13;;;8.05;100.00
11329;BME280;5719;42.714;23.732;2023-02-28T02:00:42;94843.09;;;8.02;100.00
11329;BME280;5719;42.714;23.732;2023-02-28T02:03:14;94844.84;;;8.02;100.00
11329;BME280;5719;42.714;23.732;2023-02-28T02:05:44;94846.69;;;8.00;100.00
11329;BME280;5719;42.714;23.732;2023-02-28T02:08:16;94844.38;;;7.95;100.00
11329;BME280;5719;42.714;23.732;2023-02-28T02:10:45;94840.16;;;7.94;100.00
11329;BME280;5719;42.714;23.732;2023-02-28T02:13:34;94847.97;;;7.93;100.00
11329;BME280;5719;42.714;23.732;2023-02-28T02:16:11;94855.84;;;7.89;100.00
11329;BME280;5719;42.714;23.732;2023-02-28T02:18:47;94853.88;;;7.48;100.00
11329;BME280;5719;42.714;23.732;2023-02-28T02:21:57;94852.53;;;7.56;100.00
11329;BME280;5719;42.714;23.732;2023-02-28T02:24:53;94858.28;;;7.61;100.00
11329;BME280;5719;42.714;23.732;2023-02-28T02:27:34;94856.44;;;7.63;100.00
11329;BME280;5719;42.714;23.732;2023-02-28T02:30:20;94871.28;;;7.58;100.00
11329;BME280;5719;42.714;23.732;2023-02-28T02:33:04;94878.28;;;7.56;100.00
11329;BME280;5719;42.714;23.732;2023-02-28T02:35:38;94878.34;;;7.55;100.00
11329;BME280;5719;42.714;23.732;2023-02-28T02:38:12;94864.66;;;7.54;100.00
11329;BME280;5719;42.714;23.732;2023-02-28T02:40:51;94866.41;;;7.54;100.00
11329;BME280;5719;42.714;23.732;2023-02-28T02:43:25;94864.75;;;7.53;100.00
11329;BME280;5719;42.714;23.732;2023-02-28T02:45:57;94867.31;;;7.53;100.00
11329;BME280;5719;42.714;23.732;2023-02-28T02:48:28;94863.97;;;7.51;100.00
11329;BME280;5719;42.714;23.732;2023-02-28T02:51:00;94882.31;;;7.45;100.00
11329;BME280;5719;42.714;23.732;2023-02-28T02:53:32;94874.72;;;7.43;100.00
11329;BME280;5719;42.714;23.732;2023-02-28T02:56:03;94878.09;;;7.44;99.96
11329;BME280;5719;42.714;23.732;2023-02-28T02:58:35;94883.06;;;7.31;100.00
11329;BME280;5719;42.714;23.732;2023-02-28T03:01:08;94880.38;;;7.17;99.95
11329;BME280;5719;42.714;23.732;2023-02-28T03:03:37;94889.06;;;7.14;99.73
11329;BME280;5719;42.714;23.732;2023-02-28T03:06:05;94897.03;;;7.10;100.00
11329;BME280;5719;42.714;23.732;2023-02-28T03:08:35;94901.41;;;7.08;100.00
11329;BME280;5719;42.714;23.732;2023-02-28T03:11:04;94894.94;;;7.01;100.00
11329;BME280;5719;42.714;23.732;2023-02-28T03:13:46;94910.81;;;7.09;100.00
11329;BME280;5719;42.714;23.732;2023-02-28T03:16:40;94908.41;;;7.06;100.00
11329;BME280;5719;42.714;23.732;2023-02-28T03:19:24;94907.56;;;7.05;100.00
11329;BME280;5719;42.714;23.732;2023-02-28T03:22:02;94913.53;;;7.06;99.89
11329;BME280;5719;42.714;23.732;2023-02-28T03:24:34;94914.59;;;7.02;99.65
11329;BME280;5719;42.714;23.732;2023-02-28T03:27:07;94915.66;;;6.98;99.47
11329;BME280;5719;42.714;23.732;2023-02-28T03:29:39;94923.38;;;6.98;98.87
11329;BME280;5719;42.714;23.732;2023-02-28T03:32:13;94929.56;;;6.94;99.43
11329;BME280;5719;42.714;23.732;2023-02-28T03:34:50;94928.06;;;6.89;99.17
11329;BME280;5719;42.714;23.732;2023-02-28T03:37:22;94928.97;;;6.88;99.54
11329;BME280;5719;42.714;23.732;2023-02-28T03:39:53;94925.88;;;6.82;100.00
11329;BME280;5719;42.714;23.732;2023-02-28T03:42:23;94928.44;;;6.82;100.00
11329;BME280;5719;42.714;23.732;2023-02-28T03:44:55;94936.63;;;6.73;99.94
11329;BME280;5719;42.714;23.732;2023-02-28T03:47:26;94935.50;;;6.44;100.00
11329;BME280;5719;42.714;23.732;2023-02-28T03:49:57;94937.91;;;6.47;100.00
11329;BME280;5719;42.714;23.732;2023-02-28T03:52:30;94931.72;;;6.51;100.00
11329;BME280;5719;42.714;23.732;2023-02-28T03:55:02;94936.53;;;6.57;100.00
11329;BME280;5719;42.714;23.732;2023-02-28T03:57:36;94934.59;;;6.62;100.00
11329;BME280;5719;42.714;23.732;2023-02-28T04:00:09;94936.91;;;6.67;100.00
11329;BME280;5719;42.714;23.732;2023-02-28T04:02:38;94941.75;;;6.73;100.00
11329;BME280;5719;42.714;23.732;2023-02-28T04:05:05;94933.91;;;6.76;100.00
11329;BME280;5719;42.714;23.732;2023-02-28T04:07:34;94936.78;;;6.70;100.00
11329;BME280;5719;42.714;23.732;2023-02-28T04:10:01;94931.19;;;6.62;100.00
11329;BME280;5719;42.714;23.732;2023-02-28T04:12:28;94935.94;;;6.69;100.00
11329;BME280;5719;42.714;23.732;2023-02-28T04:14:55;94933.84;;;6.77;100.00
11329;BME280;5719;42.714;23.732;2023-02-28T04:17:22;94936.16;;;6.82;100.00
11329;BME280;5719;42.714;23.732;2023-02-28T04:19:49;94935.72;;;6.74;100.00
11329;BME280;5719;42.714;23.732;2023-02-28T04:22:15;94939.41;;;6.68;100.00
11329;BME280;5719;42.714;23.732;2023-02-28T04:24:44;94946.97;;;6.71;100.00
11329;BME280;5719;42.714;23.732;2023-02-28T04:27:11;94952.03;;;6.73;100.00
11329;BME280;5719;42.714;23.732;2023-02-28T04:29:38;94948.47;;;6.75;100.00
11329;BME280;5719;42.714;23.732;2023-02-28T04:32:05;94946.06;;;6.72;100.00
11329;BME280;5719;42.714;23.732;2023-02-28T04:34:32;94953.56;;;6.24;100.00
11329;BME280;5719;42.714;23.732;2023-02-28T04:36:59;94944.03;;;6.09;100.00
11329;BME280;5719;42.714;23.732;2023-02-28T04:39:26;94947.34;;;5.94;100.00
11329;BME280;5719;42.714;23.732;2023-02-28T04:41:55;94946.13;;;6.01;100.00
11329;BME280;5719;42.714;23.732;2023-02-28T04:44:22;94942.91;;;6.14;100.00
11329;BME280;5719;42.714;23.732;2023-02-28T04:46:49;94941.03;;;6.18;100.00
11329;BME280;5719;42.714;23.732;2023-02-28T04:49:16;94940.47;;;6.30;100.00
11329;BME280;5719;42.714;23.732;2023-02-28T04:51:43;94944.28;;;6.21;100.00
11329;BME280;5719;42.714;23.732;2023-02-28T04:54:10;94949.63;;;6.17;100.00
11329;BME280;5719;42.714;23.732;2023-02-28T04:56:38;94944.13;;;6.07;100.00
11329;BME280;5719;42.714;23.732;2023-02-28T04:59:07;94949.75;;;6.32;100.00
11329;BME280;5719;42.714;23.732;2023-02-28T05:01:34;94955.78;;;6.49;100.00
11329;BME280;5719;42.714;23.732;2023-02-28T05:04:03;94948.91;;;6.49;100.00
11329;BME280;5719;42.714;23.732;2023-02-28T05:06:32;94957.66;;;6.28;100.00
11329;BME280;5719;42.714;23.732;2023-02-28T05:08:59;94960.19;;;6.47;100.00
11329;BME280;5719;42.714;23.732;2023-02-28T05:11:28;94959.22;;;6.66;100.00
11329;BME280;5719;42.714;23.732;2023-02-28T05:14:00;94959.53;;;6.77;100.00
11329;BME280;5719;42.714;23.732;2023-02-28T05:16:28;94967.00;;;6.82;100.00
11329;BME280;5719;42.714;23.732;2023-02-28T05:18:56;94963.75;;;6.96;100.00
11329;BME280;5719;42.714;23.732;2023-02-28T05:21:27;94969.41;;;7.02;100.00
11329;BME280;5719;42.714;23.732;2023-02-28T05:23:55;94972.03;;;7.01;100.00
11329;BME280;5719;42.714;23.732;2023-02-28T05:26:23;94975.31;;;6.87;100.00
11329;BME280;5719;42.714;23.732;2023-02-28T05:28:50;94986.28;;;6.90;100.00
11329;BME280;5719;42.714;23.732;2023-02-28T05:31:17;94981.88;;;6.93;100.00
11329;BME280;5719;42.714;23.732;2023-02-28T05:33:45;94988.06;;;6.88;100.00
11329;BME280;5719;42.714;23.732;2023-02-28T05:36:12;94987.69;;;6.79;100.00
11329;BME280;5719;42.714;23.732;2023-02-28T05:38:39;94992.00;;;6.78;100.00
11329;BME280;5719;42.714;23.732;2023-02-28T05:41:06;94998.19;;;6.74;100.00
11329;BME280;5719;42.714;23.732;2023-02-28T05:43:34;95000.03;;;6.72;100.00
11329;BME280;5719;42.714;23.732;2023-02-28T05:46:03;95003.13;;;6.79;100.00
11329;BME280;5719;42.714;23.732;2023-02-28T05:48:31;95006.38;;;6.82;100.00
11329;BME280;5719;42.714;23.732;2023-02-28T05:50:59;95008.25;;;6.96;100.00
11329;BME280;5719;42.714;23.732;2023-02-28T05:53:26;94992.16;;;7.10;100.00
11329;BME280;5719;42.714;23.732;2023-02-28T05:55:53;95000.00;;;7.24;100.00
11329;BME280;5719;42.714;23.732;2023-02-28T05:58:21;94999.38;;;7.36;100.00
11329;BME280;5719;42.714;23.732;2023-02-28T06:00:48;94997.00;;;7.16;100.00
11329;BME280;5719;42.714;23.732;2023-02-28T06:03:15;95000.16;;;7.04;100.00
11329;BME280;5719;42.714;23.732;2023-02-28T06:05:42;94999.34;;;7.20;100.00
11329;BME280;5719;42.714;23.732;2023-02-28T06:08:10;95006.06;;;7.23;100.00
11329;BME280;5719;42.714;23.732;2023-02-28T06:10:37;95010.88;;;7.29;100.00
11329;BME280;5719;42.714;23.732;2023-02-28T06:13:04;95019.06;;;7.20;100.00
11329;BME280;5719;42.714;23.732;2023-02-28T06:15:32;95017.69;;;7.30;100.00
11329;BME280;5719;42.714;23.732;2023-02-28T06:17:59;95024.72;;;7.26;100.00
11329;BME280;5719;42.714;23.732;2023-02-28T06:20:27;95029.03;;;7.26;100.00
11329;BME280;5719;42.714;23.732;2023-02-28T06:22:55;95031.75;;;7.40;100.00
11329;BME280;5719;42.714;23.732;2023-02-28T06:25:25;95031.06;;;7.36;100.00
11329;BME280;5719;42.714;23.732;2023-02-28T06:27:52;95027.44;;;7.40;100.00
11329;BME280;5719;42.714;23.732;2023-02-28T06:30:20;95033.19;;;7.46;100.00
11329;BME280;5719;42.714;23.732;2023-02-28T06:32:50;95031.44;;;7.46;100.00
11329;BME280;5719;42.714;23.732;2023-02-28T06:35:17;95032.19;;;7.48;100.00
11329;BME280;5719;42.714;23.732;2023-02-28T06:37:44;95028.63;;;7.51;100.00
11329;BME280;5719;42.714;23.732;2023-02-28T06:40:12;95037.56;;;7.61;100.00
11329;BME280;5719;42.714;23.732;2023-02-28T06:42:41;95034.97;;;7.61;100.00
11329;BME280;5719;42.714;23.732;2023-02-28T06:45:09;95040.47;;;7.70;100.00
11329;BME280;5719;42.714;23.732;2023-02-28T06:47:36;95047.31;;;7.87;100.00
11329;BME280;5719;42.714;23.732;2023-02-28T06:50:04;95039.44;;;7.90;100.00
11329;BME280;5719;42.714;23.732;2023-02-28T06:52:31;95046.09;;;8.10;100.00
11329;BME280;5719;42.714;23.732;2023-02-28T06:54:58;95047.38;;;8.18;100.00
11329;BME280;5719;42.714;23.732;2023-02-28T06:57:27;95039.97;;;8.28;100.00
11329;BME280;5719;42.714;23.732;2023-02-28T06:59:57;95041.09;;;8.40;100.00
11329;BME280;5719;42.714;23.732;2023-02-28T07:02:24;95035.44;;;8.49;100.00
11329;BME280;5719;42.714;23.732;2023-02-28T07:04:52;95031.50;;;8.57;100.00
11329;BME280;5719;42.714;23.732;2023-02-28T07:07:19;95022.69;;;8.61;100.00
11329;BME280;5719;42.714;23.732;2023-02-28T07:09:46;95033.00;;;8.77;100.00
11329;BME280;5719;42.714;23.732;2023-02-28T07:12:12;95032.63;;;8.83;100.00
11329;BME280;5719;42.714;23.732;2023-02-28T07:14:39;95028.06;;;8.88;100.00
11329;BME280;5719;42.714;23.732;2023-02-28T07:17:08;95025.56;;;8.86;100.00
11329;BME280;5719;42.714;23.732;2023-02-28T07:19:37;95031.41;;;8.74;100.00
11329;BME280;5719;42.714;23.732;2023-02-28T07:34:48;95040.84;;;9.49;100.00
11329;BME280;5719;42.714;23.732;2023-02-28T07:37:15;95039.50;;;9.28;100.00
11329;BME280;5719;42.714;23.732;2023-02-28T07:39:42;95042.34;;;9.23;100.00
11329;BME280;5719;42.714;23.732;2023-02-28T07:42:09;95045.28;;;9.17;100.00
11329;BME280;5719;42.714;23.732;2023-02-28T07:44:37;95042.75;;;9.02;100.00
11329;BME280;5719;42.714;23.732;2023-02-28T07:47:06;95037.78;;;8.99;100.00
11329;BME280;5719;42.714;23.732;2023-02-28T07:49:34;95029.72;;;8.89;100.00
11329;BME280;5719;42.714;23.732;2023-02-28T07:52:04;95040.38;;;8.83;100.00
11329;BME280;5719;42.714;23.732;2023-02-28T07:54:31;95039.88;;;8.76;100.00
11329;BME280;5719;42.714;23.732;2023-02-28T07:56:58;95034.91;;;8.73;100.00
11329;BME280;5719;42.714;23.732;2023-02-28T07:59:25;95040.13;;;8.72;100.00
11329;BME280;5719;42.714;23.732;2023-02-28T08:01:52;95047.44;;;8.79;100.00
11329;BME280;5719;42.714;23.732;2023-02-28T08:04:19;95036.41;;;8.77;100.00
11329;BME280;5719;42.714;23.732;2023-02-28T08:06:46;95028.91;;;8.73;100.00
11329;BME280;5719;42.714;23.732;2023-02-28T08:09:14;95029.66;;;8.75;100.00
11329;BME280;5719;42.714;23.732;2023-02-28T08:11:41;95044.69;;;8.82;100.00
11329;BME280;5719;42.714;23.732;2023-02-28T08:14:08;95037.72;;;8.84;100.00
11329;BME280;5719;42.714;23.732;2023-02-28T08:16:35;95041.94;;;8.85;100.00
11329;BME280;5719;42.714;23.732;2023-02-28T08:19:02;95046.38;;;8.83;100.00
11329;BME280;5719;42.714;23.732;2023-02-28T08:21:29;95047.22;;;8.68;100.00
11329;BME280;5719;42.714;23.732;2023-02-28T08:23:56;95049.91;;;8.67;100.00
11329;BME280;5719;42.714;23.732;2023-02-28T08:26:25;95055.13;;;8.65;100.00
11329;BME280;5719;42.714;23.732;2023-02-28T08:28:52;95051.88;;;8.62;100.00
11329;BME280;5719;42.714;23.732;2023-02-28T08:31:19;95046.84;;;8.74;100.00
11329;BME280;5719;42.714;23.732;2023-02-28T08:33:46;95044.47;;;8.71;100.00
11329;BME280;5719;42.714;23.732;2023-02-28T08:36:14;95045.06;;;8.61;100.00
11329;BME280;5719;42.714;23.732;2023-02-28T08:38:40;95046.72;;;8.77;100.00
11329;BME280;5719;42.714;23.732;2023-02-28T08:41:10;95047.94;;;8.86;100.00
11329;BME280;5719;42.714;23.732;2023-02-28T08:43:40;95048.09;;;8.99;100.00
11329;BME280;5719;42.714;23.732;2023-02-28T08:46:07;95049.22;;;9.09;100.00
11329;BME280;5719;42.714;23.732;2023-02-28T08:48:35;95050.06;;;9.09;100.00
11329;BME280;5719;42.714;23.732;2023-02-28T08:51:05;95054.34;;;9.24;100.00
11329;BME280;5719;42.714;23.732;2023-02-28T08:53:34;95060.00;;;9.45;100.00
11329;BME280;5719;42.714;23.732;2023-02-28T08:56:03;95058.84;;;9.65;100.00
11329;BME280;5719;42.714;23.732;2023-02-28T08:58:31;95061.44;;;9.93;100.00
11329;BME280;5719;42.714;23.732;2023-02-28T09:00:59;95059.72;;;10.22;100.00
11329;BME280;5719;42.714;23.732;2023-02-28T09:03:26;95054.13;;;10.42;100.00
11329;BME280;5719;42.714;23.732;2023-02-28T09:05:58;95047.63;;;10.63;100.00
11329;BME280;5719;42.714;23.732;2023-02-28T09:08:26;95037.41;;;10.89;100.00
11329;BME280;5719;42.714;23.732;2023-02-28T09:10:53;95040.56;;;11.19;100.00
11329;BME280;5719;42.714;23.732;2023-02-28T09:13:22;95041.91;;;11.12;100.00
11329;BME280;5719;42.714;23.732;2023-02-28T09:15:49;95049.41;;;11.29;100.00
11329;BME280;5719;42.714;23.732;2023-02-28T09:18:18;95048.44;;;11.17;100.00
11329;BME280;5719;42.714;23.732;2023-02-28T09:20:45;95041.97;;;10.98;100.00
11329;BME280;5719;42.714;23.732;2023-02-28T09:23:12;95048.66;;;10.88;100.00
11329;BME280;5719;42.714;23.732;2023-02-28T09:25:45;95035.19;;;10.82;100.00
11329;BME280;5719;42.714;23.732;2023-02-28T09:28:13;95035.38;;;10.79;100.00
11329;BME280;5719;42.714;23.732;2023-02-28T09:30:41;95037.06;;;10.93;100.00
11329;BME280;5719;42.714;23.732;2023-02-28T09:33:08;95045.09;;;11.03;100.00
11329;BME280;5719;42.714;23.732;2023-02-28T09:35:36;95042.84;;;11.11;100.00
11329;BME280;5719;42.714;23.732;2023-02-28T09:38:04;95039.66;;;11.20;100.00
11329;BME280;5719;42.714;23.732;2023-02-28T09:40:36;95044.53;;;10.98;100.00
11329;BME280;5719;42.714;23.732;2023-02-28T09:43:04;95050.16;;;11.04;100.00
11329;BME280;5719;42.714;23.732;2023-02-28T09:45:34;95049.22;;;11.05;100.00
11329;BME280;5719;42.714;23.732;2023-02-28T09:48:04;95050.84;;;10.94;100.00
11329;BME280;5719;42.714;23.732;2023-02-28T09:50:37;95049.56;;;10.87;100.00
11329;BME280;5719;42.714;23.732;2023-02-28T09:53:13;95045.88;;;10.91;100.00
11329;BME280;5719;42.714;23.732;2023-02-28T09:55:45;95045.31;;;10.86;100.00
11329;BME280;5719;42.714;23.732;2023-02-28T09:58:20;95042.03;;;10.83;100.00
11329;BME280;5719;42.714;23.732;2023-02-28T10:00:56;95036.28;;;10.78;100.00
11329;BME280;5719;42.714;23.732;2023-02-28T10:03:30;95035.44;;;10.65;100.00
11329;BME280;5719;42.714;23.732;2023-02-28T10:06:07;95030.88;;;10.42;100.00
11329;BME280;5719;42.714;23.732;2023-02-28T10:08:39;95031.72;;;10.69;100.00
11329;BME280;5719;42.714;23.732;2023-02-28T10:11:12;95020.41;;;10.85;100.00
11329;BME280;5719;42.714;23.732;2023-02-28T10:13:50;95015.44;;;10.81;100.00
11329;BME280;5719;42.714;23.732;2023-02-28T10:16:25;95004.72;;;11.00;100.00
11329;BME280;5719;42.714;23.732;2023-02-28T10:18:59;95011.25;;;11.18;100.00
11329;BME280;5719;42.714;23.732;2023-02-28T10:21:32;95008.81;;;11.29;100.00
11329;BME280;5719;42.714;23.732;2023-02-28T10:24:13;95016.16;;;11.23;100.00
11329;BME280;5719;42.714;23.732;2023-02-28T10:26:45;95007.53;;;11.22;100.00
11329;BME280;5719;42.714;23.732;2023-02-28T10:29:14;95008.13;;;11.40;100.00
11329;BME280;5719;42.714;23.732;2023-02-28T10:31:41;95001.06;;;11.42;100.00
11329;BME280;5719;42.714;23.732;2023-02-28T10:34:12;95005.09;;;11.46;100.00
11329;BME280;5719;42.714;23.732;2023-02-28T10:36:41;95005.41;;;11.29;100.00
11329;BME280;5719;42.714;23.732;2023-02-28T10:39:34;95001.03;;;11.17;100.00
11329;BME280;5719;42.714;23.732;2023-02-28T10:42:01;95001.91;;;10.91;100.00
11329;BME280;5719;42.714;23.732;2023-02-28T10:44:28;94997.75;;;10.88;100.00
11329;BME280;5719;42.714;23.732;2023-02-28T10:46:56;94995.50;;;10.96;100.00
11329;BME280;5719;42.714;23.732;2023-02-28T10:49:24;94993.56;;;11.12;100.00
11329;BME280;5719;42.714;23.732;2023-02-28T10:51:55;94986.03;;;11.22;100.00
11329;BME280;5719;42.714;23.732;2023-02-28T10:54:28;94986.53;;;11.27;100.00
11329;BME280;5719;42.714;23.732;2023-02-28T10:57:07;94972.03;;;11.12;100.00
11329;BME280;5719;42.714;23.732;2023-02-28T10:59:35;94976.69;;;11.19;100.00
11329;BME280;5719;42.714;23.732;2023-02-28T11:02:02;94974.84;;;11.34;100.00
11329;BME280;5719;42.714;23.732;2023-02-28T11:04:34;94970.81;;;11.55;100.00
11329;BME280;5719;42.714;23.732;2023-02-28T11:07:14;94973.28;;;11.69;100.00
11329;BME280;5719;42.714;23.732;2023-02-28T11:09:46;94961.41;;;11.42;100.00
11329;BME280;5719;42.714;23.732;2023-02-28T11:12:21;94962.31;;;11.41;100.00
11329;BME280;5719;42.714;23.732;2023-02-28T11:14:50;94957.03;;;11.55;100.00
11329;BME280;5719;42.714;23.732;2023-02-28T11:17:20;94961.13;;;11.71;100.00
11329;BME280;5719;42.714;23.732;2023-02-28T11:19:51;94959.63;;;11.93;99.48
11329;BME280;5719;42.714;23.732;2023-02-28T11:22:24;94958.03;;;12.03;99.25
11329;BME280;5719;42.714;23.732;2023-02-28T11:24:55;94958.47;;;11.97;100.00
11329;BME280;5719;42.714;23.732;2023-02-28T11:27:43;94950.22;;;11.79;99.74
11329;BME280;5719;42.714;23.732;2023-02-28T11:30:31;94947.94;;;11.74;100.00
11329;BME280;5719;42.714;23.732;2023-02-28T11:32:59;94942.94;;;11.84;99.67
11329;BME280;5719;42.714;23.732;2023-02-28T11:35:30;94944.22;;;11.78;100.00
11329;BME280;5719;42.714;23.732;2023-02-28T11:38:01;94941.19;;;11.85;99.56
11329;BME280;5719;42.714;23.732;2023-02-28T11:40:34;94936.00;;;11.85;99.91
11329;BME280;5719;42.714;23.732;2023-02-28T11:43:16;94931.03;;;11.94;97.90
11329;BME280;5719;42.714;23.732;2023-02-28T11:46:00;94933.69;;;12.05;96.95
11329;BME280;5719;42.714;23.732;2023-02-28T11:48:34;94924.94;;;12.19;96.05
11329;BME280;5719;42.714;23.732;2023-02-28T11:51:13;94935.63;;;12.14;94.57
11329;BME280;5719;42.714;23.732;2023-02-28T11:53:55;94935.09;;;12.22;96.26
11329;BME280;5719;42.714;23.732;2023-02-28T11:56:31;94931.56;;;12.23;94.75
11329;BME280;5719;42.714;23.732;2023-02-28T11:59:16;94926.38;;;12.23;96.55
11329;BME280;5719;42.714;23.732;2023-02-28T12:04:59;94927.91;;;12.02;97.10
11329;BME280;5719;42.714;23.732;2023-02-28T12:07:39;94922.56;;;12.16;98.09
11329;BME280;5719;42.714;23.732;2023-02-28T12:10:20;94930.28;;;12.28;96.51
11329;BME280;5719;42.714;23.732;2023-02-28T12:12:57;94925.91;;;12.42;95.17
11329;BME280;5719;42.714;23.732;2023-02-28T12:15:41;94935.59;;;12.51;93.58
11329;BME280;5719;42.714;23.732;2023-02-28T12:18:27;94932.53;;;12.46;92.39
11329;BME280;5719;42.714;23.732;2023-02-28T12:21:05;94936.59;;;12.37;92.66
11329;BME280;5719;42.714;23.732;2023-02-28T12:26:38;94933.47;;;12.08;93.41
11329;BME280;5719;42.714;23.732;2023-02-28T12:29:14;94933.88;;;12.15;93.56
11329;BME280;5719;42.714;23.732;2023-02-28T12:31:48;94938.59;;;11.85;92.75
11329;BME280;5719;42.714;23.732;2023-02-28T12:34:18;94931.03;;;11.82;93.87
11329;BME280;5719;42.714;23.732;2023-02-28T12:36:48;94927.84;;;11.78;95.37
11329;BME280;5719;42.714;23.732;2023-02-28T12:39:20;94924.97;;;12.06;94.20
11329;BME280;5719;42.714;23.732;2023-02-28T12:41:53;94923.28;;;12.18;93.05
11329;BME280;5719;42.714;23.732;2023-02-28T12:44:26;94922.66;;;12.27;91.96
11329;BME280;5719;42.714;23.732;2023-02-28T12:46:57;94911.06;;;12.20;91.03
11329;BME280;5719;42.714;23.732;2023-02-28T12:49:30;94918.31;;;12.15;92.02
11329;BME280;5719;42.714;23.732;2023-02-28T12:51:59;94914.59;;;12.06;91.86
11329;BME280;5719;42.714;23.732;2023-02-28T12:54:31;94915.28;;;11.85;92.66
11329;BME280;5719;42.714;23.732;2023-02-28T12:57:07;94917.03;;;11.97;90.24
11329;BME280;5719;42.714;23.732;2023-02-28T12:59:39;94915.03;;;12.13;90.02
11329;BME280;5719;42.714;23.732;2023-02-28T13:02:38;94914.34;;;12.22;89.76
11329;BME280;5719;42.714;23.732;2023-02-28T13:05:29;94909.50;;;12.17;87.52
11329;BME280;5719;42.714;23.732;2023-02-28T13:08:22;94915.28;;;11.97;88.46
11329;BME280;5719;42.714;23.732;2023-02-28T13:10:54;94907.03;;;11.79;88.85
11329;BME280;5719;42.714;23.732;2023-02-28T13:13:24;94912.09;;;11.81;90.00
11329;BME280;5719;42.714;23.732;2023-02-28T13:16:00;94909.88;;;11.88;89.13
11329;BME280;5719;42.714;23.732;2023-02-28T13:18:30;94905.59;;;11.99;87.43
11329;BME280;5719;42.714;23.732;2023-02-28T13:20:58;94907.97;;;12.02;87.06
11329;BME280;5719;42.714;23.732;2023-02-28T13:24:01;94904.16;;;12.08;87.25
11329;BME280;5719;42.714;23.732;2023-02-28T13:29:36;94894.25;;;11.89;85.78
11329;BME280;5719;42.714;23.732;2023-02-28T13:35:35;94907.84;;;11.67;86.21
11329;BME280;5719;42.714;23.732;2023-02-28T13:44:00;94908.09;;;11.39;87.28
11329;BME280;5719;42.714;23.732;2023-02-28T13:46:29;94904.34;;;11.30;87.43
11329;BME280;5719;42.714;23.732;2023-02-28T13:49:18;94912.22;;;11.16;87.08